Time;durP1;ratioP1;P1;durP2;ratioP2;P2;SDS_P1;SDS_P2;PMS_P1;PMS_P2;Temp;Humidity;BMP_temperature;BMP_pressure;BME280_temperature;BME280_humidity;BME280_pressure;Samples;Min_cycle;Max_cycle;Signal;HPM_P1;HPM_P2
2023/03/12 00:00:48;;;;;;;;;;;;;;;18.73;64.71;97575.97;2080268;28;19982;-55
2023/03/12 00:01:49;;;;;;;;;;;;;;;18.72;64.46;97580.53;2078720;28;19959;-55
2023/03/12 00:02:51;;;;;;;;;;;;;;;18.72;64.72;97580.53;2080759;28;20443;-57
2023/03/12 00:03:52;;;;;;;;;;;;;;;18.71;64.64;97583.44;2080458;28;19924;-52
2023/03/12 00:04:55;;;;;;;;;;;;;;;18.72;64.92;97579.69;2081928;28;19932;-58
2023/03/12 00:05:55;;;;;;;;;;;;;;;18.71;64.95;97578.88;2078500;28;19960;-55
2023/03/12 00:06:57;;;;;;;;;;;;;;;18.71;64.97;97586.94;2078778;28;19940;-56
2023/03/12 00:07:58;;;;;;;;;;;;;;;18.71;64.95;97588.81;2076323;28;19932;-59
2023/03/12 00:09:00;;;;;;;;;;;;;;;18.71;65.05;97580.75;2082755;28;19928;-54
2023/03/12 00:10:01;;;;;;;;;;;;;;;18.71;64.94;97594.19;2076706;28;19940;-56
2023/03/12 00:11:06;;;;;;;;;;;;;;;18.70;64.89;97587.19;2077156;28;19947;-58
2023/03/12 00:12:07;;;;;;;;;;;;;;;18.70;65.14;97588.00;2078446;28;19937;-55
2023/03/12 00:13:08;;;;;;;;;;;;;;;18.69;65.12;97589.06;2075294;28;19932;-52
2023/03/12 00:14:09;;;;;;;;;;;;;;;18.71;65.21;97594.19;2080585;28;20563;-59
2023/03/12 00:15:11;;;;;;;;;;;;;;;18.69;65.11;97596.28;2083274;28;19955;-52
2023/03/12 00:16:12;;;;;;;;;;;;;;;18.68;65.32;97592.78;2081156;28;19925;-58
2023/03/12 00:17:13;;;;;;;;;;;;;;;18.68;65.19;97594.66;2075300;28;19940;-56
2023/03/12 00:18:15;;;;;;;;;;;;;;;18.69;65.60;97593.59;2079051;28;20431;-49
2023/03/12 00:19:16;;;;;;;;;;;;;;;18.69;65.89;97601.66;2078984;28;20027;-54
2023/03/12 00:20:17;;;;;;;;;;;;;;;18.68;65.56;97602.72;2080380;28;19929;-56
2023/03/12 00:21:20;;;;;;;;;;;;;;;18.69;65.86;97607.03;2078994;28;19932;-53
2023/03/12 00:22:21;;;;;;;;;;;;;;;18.69;65.93;97604.34;2079807;28;20282;-52
2023/03/12 00:23:23;;;;;;;;;;;;;;;18.68;65.62;97608.91;2078788;28;19929;-56
2023/03/12 00:24:23;;;;;;;;;;;;;;;18.71;65.96;97615.69;2082103;28;19976;-54
2023/03/12 00:25:25;;;;;;;;;;;;;;;18.69;65.88;97607.88;2078003;28;20002;-50
2023/03/12 00:26:25;;;;;;;;;;;;;;;18.67;66.06;97612.63;2078019;28;20319;-55
2023/03/12 00:27:27;;;;;;;;;;;;;;;18.66;66.21;97613.66;2083090;28;19936;-51
2023/03/12 00:28:28;;;;;;;;;;;;;;;18.67;65.74;97611.81;2074885;28;19929;-54
2023/03/12 00:29:29;;;;;;;;;;;;;;;18.68;65.79;97618.81;2076674;28;19979;-55
2023/03/12 00:30:30;;;;;;;;;;;;;;;18.69;66.00;97617.75;2080182;28;20354;-59
2023/03/12 00:31:33;;;;;;;;;;;;;;;18.67;66.14;97619.88;2078746;28;19936;-57
2023/03/12 00:32:33;;;;;;;;;;;;;;;18.66;65.84;97629.78;2073252;28;19937;-56
2023/03/12 00:33:36;;;;;;;;;;;;;;;18.65;66.08;97613.91;2077342;28;19937;-55
2023/03/12 00:34:37;;;;;;;;;;;;;;;18.64;65.89;97613.09;2083073;28;19933;-57
2023/03/12 00:35:38;;;;;;;;;;;;;;;18.65;66.06;97630.84;2074326;28;19933;-59
2023/03/12 00:36:40;;;;;;;;;;;;;;;18.64;66.28;97629.22;2076665;28;19925;-58
2023/03/12 00:37:41;;;;;;;;;;;;;;;18.64;66.18;97631.09;2081837;28;19971;-54
2023/03/12 00:38:42;;;;;;;;;;;;;;;18.63;66.03;97640.16;2084490;28;19928;-52
2023/03/12 00:39:43;;;;;;;;;;;;;;;18.63;66.38;97634.78;2078681;28;19928;-50
2023/03/12 00:40:44;;;;;;;;;;;;;;;18.65;66.13;97638.09;2075293;28;19924;-55
2023/03/12 00:41:45;;;;;;;;;;;;;;;18.65;66.38;97638.91;2078849;28;19964;-52
2023/03/12 00:42:46;;;;;;;;;;;;;;;18.64;66.51;97637.28;2076802;28;20011;-52
2023/03/12 00:43:47;;;;;;;;;;;;;;;18.62;66.22;97636.66;2074041;28;19937;-56
2023/03/12 00:44:48;;;;;;;;;;;;;;;18.62;66.13;97635.84;2073189;28;19933;-54
2023/03/12 00:45:49;;;;;;;;;;;;;;;18.62;66.43;97639.34;2080940;28;19988;-56
2023/03/12 00:46:50;;;;;;;;;;;;;;;18.61;66.23;97635.03;2068411;28;19933;-58
2023/03/12 00:47:51;;;;;;;;;;;;;;;18.60;66.31;97636.06;2074357;28;20352;-56
2023/03/12 00:48:53;;;;;;;;;;;;;;;18.62;66.25;97631.28;2080898;28;19987;-58
2023/03/12 00:49:54;;;;;;;;;;;;;;;18.62;66.13;97633.16;2076301;28;20020;-53
2023/03/12 00:50:55;;;;;;;;;;;;;;;18.62;66.66;97641.22;2078210;28;19929;-50
2023/03/12 00:51:56;;;;;;;;;;;;;;;18.61;66.38;97636.88;2078309;28;20018;-55
2023/03/12 00:52:57;;;;;;;;;;;;;;;18.60;66.59;97630.69;2079954;28;19933;-53
2023/03/12 00:53:58;;;;;;;;;;;;;;;18.61;66.62;97632.34;2075643;28;27413;-59
2023/03/12 00:54:59;;;;;;;;;;;;;;;18.61;66.35;97636.88;2075194;28;20436;-52
2023/03/12 00:56:00;;;;;;;;;;;;;;;18.61;66.67;97635.03;2080829;28;19983;-51
2023/03/12 00:57:01;;;;;;;;;;;;;;;18.59;66.71;97642.50;2073973;28;19976;-57
2023/03/12 00:58:02;;;;;;;;;;;;;;;18.59;66.85;97633.63;2077316;28;19929;-54
2023/03/12 00:59:03;;;;;;;;;;;;;;;18.60;66.61;97641.44;2081539;28;19974;-55
2023/03/12 01:00:08;;;;;;;;;;;;;;;18.61;66.69;97636.88;2077112;28;21271;-54
2023/03/12 01:01:09;;;;;;;;;;;;;;;18.60;66.64;97638.75;2076205;28;19936;-61
2023/03/12 01:02:10;;;;;;;;;;;;;;;18.60;66.59;97635.25;2079283;28;20040;-53
2023/03/12 01:03:11;;;;;;;;;;;;;;;18.59;66.67;97639.00;2075988;28;19972;-50
2023/03/12 01:04:14;;;;;;;;;;;;;;;18.58;66.61;97638.16;2082894;28;19929;-51
2023/03/12 01:05:14;;;;;;;;;;;;;;;18.57;66.72;97641.09;2078841;28;20354;-54
2023/03/12 01:06:16;;;;;;;;;;;;;;;18.56;66.89;97642.97;2081064;28;19936;-52
2023/03/12 01:07:16;;;;;;;;;;;;;;;18.55;66.90;97638.63;2074890;28;20972;-53
2023/03/12 01:08:18;;;;;;;;;;;;;;;18.57;66.91;97643.78;2079849;28;20022;-56
2023/03/12 01:09:18;;;;;;;;;;;;;;;18.57;66.68;97651.81;2076495;28;20376;-54
2023/03/12 01:10:20;;;;;;;;;;;;;;;18.56;66.83;97644.81;2080847;28;19933;-56
2023/03/12 01:11:21;;;;;;;;;;;;;;;18.54;66.63;97648.53;2074970;28;19946;-53
2023/03/12 01:12:23;;;;;;;;;;;;;;;18.57;66.91;97649.97;2077875;28;19953;-54
2023/03/12 01:13:23;;;;;;;;;;;;;;;18.54;66.82;97651.22;2073730;28;19990;-52
2023/03/12 01:14:25;;;;;;;;;;;;;;;18.55;66.78;97646.66;2079078;28;19928;-53
2023/03/12 01:15:25;;;;;;;;;;;;;;;18.56;66.73;97648.31;2077243;28;20043;-54
2023/03/12 01:16:28;;;;;;;;;;;;;;;18.56;66.81;97639.47;2075578;28;19941;-55
2023/03/12 01:17:29;;;;;;;;;;;;;;;18.55;66.88;97652.03;2079913;28;19933;-53
2023/03/12 01:18:30;;;;;;;;;;;;;;;18.53;66.83;97646.91;2076506;28;19932;-53
2023/03/12 01:19:32;;;;;;;;;;;;;;;18.54;66.93;97651.22;2072439;28;20602;-52
2023/03/12 01:20:34;;;;;;;;;;;;;;;18.56;66.65;97658.25;2081993;28;20616;-51
2023/03/12 01:21:35;;;;;;;;;;;;;;;18.54;66.99;97659.28;2081051;28;19955;-54
2023/03/12 01:22:36;;;;;;;;;;;;;;;18.53;66.89;97657.66;2072494;28;19968;-54
2023/03/12 01:23:37;;;;;;;;;;;;;;;18.54;66.85;97661.16;2083395;28;19933;-57
2023/03/12 01:24:38;;;;;;;;;;;;;;;18.52;66.66;97664.06;2080864;28;19937;-53
2023/03/12 01:25:39;;;;;;;;;;;;;;;18.51;66.92;97659.75;2079544;28;19924;-52
2023/03/12 01:26:41;;;;;;;;;;;;;;;18.49;67.12;97669.88;2082683;28;19939;-53
2023/03/12 01:27:43;;;;;;;;;;;;;;;18.51;67.10;97667.78;2083655;28;22413;-53
2023/03/12 01:28:45;;;;;;;;;;;;;;;18.49;67.18;97666.38;2080030;28;19925;-55
2023/03/12 01:29:45;;;;;;;;;;;;;;;18.51;66.93;97670.47;2078455;28;20472;-54
2023/03/12 01:30:46;;;;;;;;;;;;;;;18.50;66.96;97668.03;2079007;28;19933;-53
2023/03/12 01:31:47;;;;;;;;;;;;;;;18.46;67.10;97656.91;2083444;28;19928;-52
2023/03/12 01:32:48;;;;;;;;;;;;;;;18.49;66.75;97664.50;2078518;28;20625;-52
2023/03/12 01:33:49;;;;;;;;;;;;;;;18.50;67.00;97666.16;2078392;28;20016;-52
2023/03/12 01:34:52;;;;;;;;;;;;;;;18.48;66.99;97665.56;2074554;28;19972;-54
2023/03/12 01:35:52;;;;;;;;;;;;;;;18.47;66.73;97663.94;2078869;28;19936;-56
2023/03/12 01:36:54;;;;;;;;;;;;;;;18.50;66.96;97662.66;2077252;28;19932;-54
2023/03/12 01:37:55;;;;;;;;;;;;;;;18.48;67.12;97657.50;2074473;28;19933;-55
2023/03/12 01:38:57;;;;;;;;;;;;;;;18.47;66.99;97663.94;2072009;28;19937;-53
2023/03/12 01:39:58;;;;;;;;;;;;;;;18.48;66.72;97659.38;2082285;28;20378;-56
2023/03/12 01:40:59;;;;;;;;;;;;;;;18.48;67.01;97662.88;2079205;28;19928;-54
2023/03/12 01:42:00;;;;;;;;;;;;;;;18.45;67.30;97666.03;2081070;28;19933;-54
2023/03/12 01:43:22;;;;;;;;;;;;;;;18.47;67.02;97663.09;2077030;28;19933;-54
2023/03/12 01:44:22;;;;;;;;;;;;;;;18.45;67.13;97668.69;2084683;28;19928;-52
2023/03/12 01:45:42;;;;;;;;;;;;;;;18.47;66.86;97669.31;2080968;28;20537;-57
2023/03/12 01:46:44;;;;;;;;;;;;;;;18.48;66.84;97670.13;2075216;28;19948;-52
2023/03/12 01:47:45;;;;;;;;;;;;;;;18.46;67.07;97667.66;2075064;28;20615;-50
2023/03/12 01:48:49;;;;;;;;;;;;;;;18.43;67.21;97667.28;2078854;28;19925;-53
2023/03/12 01:49:52;;;;;;;;;;;;;;;18.44;66.84;97668.91;2078136;28;19936;-51
2023/03/12 01:50:54;;;;;;;;;;;;;;;18.45;66.96;97676.75;2074322;28;20020;-53
2023/03/12 01:51:57;;;;;;;;;;;;;;;18.42;66.86;97677.22;2072595;28;20406;-57
2023/03/12 01:52:58;;;;;;;;;;;;;;;18.43;67.02;97673.47;2080033;28;19928;-54
2023/03/12 01:54:00;;;;;;;;;;;;;;;18.41;66.99;97670.19;2075934;28;19929;-54
2023/03/12 01:55:03;;;;;;;;;;;;;;;18.42;66.99;97673.72;2080571;28;20337;-54
2023/03/12 01:56:05;;;;;;;;;;;;;;;18.41;66.89;97675.56;2075022;28;19929;-52
2023/03/12 01:57:08;;;;;;;;;;;;;;;18.41;67.10;97670.19;2076157;28;19928;-53
2023/03/12 01:58:10;;;;;;;;;;;;;;;18.42;66.88;97671.03;2078198;28;19932;-58
2023/03/12 01:59:12;;;;;;;;;;;;;;;18.39;67.28;97674.97;2082101;28;19924;-53
2023/03/12 02:00:17;;;;;;;;;;;;;;;18.39;67.13;97672.28;2071351;28;19932;-57
2023/03/12 02:01:18;;;;;;;;;;;;;;;18.39;67.01;97671.47;2074355;28;20549;-52
2023/03/12 02:02:25;;;;;;;;;;;;;;;18.40;67.11;97670.44;2072418;28;21610;-56
2023/03/12 02:03:26;;;;;;;;;;;;;;;18.40;67.01;97668.56;2073793;28;20187;-54
2023/03/12 02:04:28;;;;;;;;;;;;;;;18.39;67.02;97666.13;2076654;28;19929;-52
2023/03/12 02:05:32;;;;;;;;;;;;;;;18.38;67.07;97659.09;2077843;28;19945;-54
2023/03/12 02:06:37;;;;;;;;;;;;;;;18.39;67.09;97663.44;2070813;28;19928;-55
2023/03/12 02:07:37;;;;;;;;;;;;;;;18.38;66.89;97659.91;2073631;28;19967;-52
2023/03/12 02:08:41;;;;;;;;;;;;;;;18.37;67.03;97658.28;2076505;28;20399;-53
2023/03/12 02:09:45;;;;;;;;;;;;;;;18.39;67.36;97666.94;2082456;28;19998;-56
2023/03/12 02:10:45;;;;;;;;;;;;;;;18.39;66.77;97664.25;2074050;28;20520;-50
2023/03/12 02:11:47;;;;;;;;;;;;;;;18.39;67.01;97666.13;2074772;28;19983;-54
2023/03/12 02:12:47;;;;;;;;;;;;;;;18.38;67.30;97665.28;2081959;28;19982;-52
2023/03/12 02:13:49;;;;;;;;;;;;;;;18.39;66.95;97676.84;2076872;28;20567;-52
2023/03/12 02:14:49;;;;;;;;;;;;;;;18.38;67.24;97665.28;2071590;28;19959;-52
2023/03/12 02:15:51;;;;;;;;;;;;;;;18.38;67.19;97670.63;2078456;28;19985;-53
2023/03/12 02:16:52;;;;;;;;;;;;;;;18.37;67.09;97670.88;2075993;28;19935;-52
2023/03/12 02:17:54;;;;;;;;;;;;;;;18.38;67.04;97667.13;2079511;28;20384;-52
2023/03/12 02:18:56;;;;;;;;;;;;;;;18.37;67.22;97666.31;2076066;28;20008;-54
2023/03/12 02:20:06;;;;;;;;;;;;;;;18.37;67.20;97673.56;2075688;28;21031;-53
2023/03/12 02:21:12;;;;;;;;;;;;;;;18.37;67.36;97668.19;2078159;28;19929;-56
2023/03/12 02:22:14;;;;;;;;;;;;;;;18.36;67.05;97678.13;2082951;28;19940;-54
2023/03/12 02:23:17;;;;;;;;;;;;;;;18.36;67.30;97677.28;2081284;28;19928;-54
2023/03/12 02:24:25;;;;;;;;;;;;;;;18.37;67.19;97677.06;2078860;28;19944;-53
2023/03/12 02:25:29;;;;;;;;;;;;;;;18.37;67.37;97685.13;2076528;28;19929;-50
2023/03/12 02:26:31;;;;;;;;;;;;;;;18.36;67.19;97677.28;2079986;28;20019;-54
2023/03/12 02:27:32;;;;;;;;;;;;;;;18.37;67.47;97681.63;2077609;28;20374;-55
2023/03/12 02:28:41;;;;;;;;;;;;;;;18.36;67.46;97682.66;2081552;28;19947;-57
2023/03/12 02:29:42;;;;;;;;;;;;;;;18.36;67.14;97686.16;2079831;28;19939;-57
2023/03/12 02:30:46;;;;;;;;;;;;;;;18.37;67.29;97684.31;2081621;28;20412;-57
2023/03/12 02:31:50;;;;;;;;;;;;;;;18.39;67.43;97683.03;2072845;28;20024;-51
2023/03/12 02:32:52;;;;;;;;;;;;;;;18.40;67.31;97681.16;2081680;28;19929;-53
2023/03/12 02:33:54;;;;;;;;;;;;;;;18.41;67.31;97678.25;2078781;28;20016;-53
2023/03/12 02:34:55;;;;;;;;;;;;;;;18.42;67.41;97685.28;2081194;28;20424;-52
2023/03/12 02:35:57;;;;;;;;;;;;;;;18.42;67.83;97685.28;2080351;28;19928;-53
2023/03/12 02:36:57;;;;;;;;;;;;;;;18.40;67.88;97689.22;2077714;28;19933;-53
2023/03/12 02:37:59;;;;;;;;;;;;;;;18.40;67.81;97694.59;2077328;28;19941;-49
2023/03/12 02:38:59;;;;;;;;;;;;;;;18.36;67.92;97694.22;2078549;28;20588;-56
2023/03/12 02:40:04;;;;;;;;;;;;;;;18.37;68.06;97690.50;2079077;28;19928;-53
2023/03/12 02:41:09;;;;;;;;;;;;;;;18.36;67.67;97691.53;2079308;28;20111;-53
2023/03/12 02:42:10;;;;;;;;;;;;;;;18.36;67.74;97694.22;2083286;28;19928;-52
2023/03/12 02:43:11;;;;;;;;;;;;;;;18.34;67.86;97701.69;2081560;28;19978;-57
2023/03/12 02:44:14;;;;;;;;;;;;;;;18.33;67.84;97693.84;2079881;28;19933;-55
2023/03/12 02:45:14;;;;;;;;;;;;;;;18.31;67.95;97694.06;2079316;28;19928;-56
2023/03/12 02:46:16;;;;;;;;;;;;;;;18.30;68.15;97700.47;2079535;28;19936;-56
2023/03/12 02:47:18;;;;;;;;;;;;;;;18.31;67.98;97708.31;2074193;28;19933;-51
2023/03/12 02:48:18;;;;;;;;;;;;;;;18.31;68.00;97700.25;2075987;28;19987;-53
2023/03/12 02:49:20;;;;;;;;;;;;;;;18.32;67.99;97711.81;2078518;28;19990;-48
2023/03/12 02:50:21;;;;;;;;;;;;;;;18.32;67.70;97711.81;2078841;28;19933;-55
2023/03/12 02:51:22;;;;;;;;;;;;;;;18.33;67.84;97708.09;2078762;28;19925;-58
2023/03/12 02:52:23;;;;;;;;;;;;;;;18.34;67.96;97706.22;2078322;28;19929;-53
2023/03/12 02:53:24;;;;;;;;;;;;;;;18.31;68.05;97710.19;2077155;28;20015;-54
2023/03/12 02:54:24;;;;;;;;;;;;;;;18.29;68.04;97704.22;2080230;28;19925;-51
2023/03/12 02:55:26;;;;;;;;;;;;;;;18.30;67.98;97708.53;2078411;28;20342;-56
2023/03/12 02:56:28;;;;;;;;;;;;;;;18.31;68.05;97707.50;2083989;28;19929;-56
2023/03/12 02:57:29;;;;;;;;;;;;;;;18.31;67.92;97708.31;2080090;28;20023;-50
2023/03/12 02:58:30;;;;;;;;;;;;;;;18.32;67.96;97709.13;2074950;28;19962;-60
2023/03/12 02:59:31;;;;;;;;;;;;;;;18.30;67.89;97716.56;2082394;28;20590;-54
2023/03/12 03:00:32;;;;;;;;;;;;;;;18.30;67.81;97711.22;2083506;28;19955;-62
2023/03/12 03:01:33;;;;;;;;;;;;;;;18.30;67.90;97712.06;2081488;28;19928;-56
2023/03/12 03:02:34;;;;;;;;;;;;;;;18.29;68.11;97717.63;2076775;28;19932;-58
2023/03/12 03:03:35;;;;;;;;;;;;;;;18.30;67.97;97721.94;2080451;28;19924;-54
2023/03/12 03:04:36;;;;;;;;;;;;;;;18.31;68.05;97728.97;2076847;28;19929;-51
2023/03/12 03:05:37;;;;;;;;;;;;;;;18.30;67.85;97727.31;2070397;28;19963;-53
2023/03/12 03:06:39;;;;;;;;;;;;;;;18.31;67.98;97729.78;2076062;28;20391;-52
2023/03/12 03:07:40;;;;;;;;;;;;;;;18.32;67.91;97727.91;2072155;28;19979;-53
2023/03/12 03:08:41;;;;;;;;;;;;;;;18.32;68.00;97735.97;2083578;28;19960;-56
2023/03/12 03:09:42;;;;;;;;;;;;;;;18.31;68.09;97739.72;2076926;28;20358;-54
2023/03/12 03:10:43;;;;;;;;;;;;;;;18.31;67.84;97734.34;2073269;28;19933;-52
2023/03/12 03:11:46;;;;;;;;;;;;;;;18.31;68.08;97735.16;2076999;28;20394;-54
2023/03/12 03:12:46;;;;;;;;;;;;;;;18.31;67.97;97737.84;2079013;28;20015;-53
2023/03/12 03:13:47;;;;;;;;;;;;;;;18.31;67.96;97743.22;2074848;28;19933;-52
2023/03/12 03:14:48;;;;;;;;;;;;;;;18.30;68.25;97740.72;2079949;28;20020;-54
2023/03/12 03:15:49;;;;;;;;;;;;;;;18.33;67.80;97744.84;2069296;28;19976;-50
2023/03/12 03:16:50;;;;;;;;;;;;;;;18.31;67.98;97751.25;2073471;28;20394;-52
2023/03/12 03:17:51;;;;;;;;;;;;;;;18.31;68.02;97745.06;2076837;28;19959;-53
2023/03/12 03:18:52;;;;;;;;;;;;;;;18.30;67.89;97748.78;2080916;28;19992;-50
2023/03/12 03:19:53;;;;;;;;;;;;;;;18.29;68.03;97752.53;2071861;28;19933;-55
2023/03/12 03:20:54;;;;;;;;;;;;;;;18.27;68.04;97749.22;2080615;28;20013;-52
2023/03/12 03:21:56;;;;;;;;;;;;;;;18.29;68.20;97753.34;2081912;28;19933;-52
2023/03/12 03:22:56;;;;;;;;;;;;;;;18.30;68.25;97751.47;2080681;28;19929;-52
2023/03/12 03:23:58;;;;;;;;;;;;;;;18.29;68.01;97753.34;2079024;28;20391;-52
2023/03/12 03:24:59;;;;;;;;;;;;;;;18.26;68.05;97758.34;2078708;28;19936;-53
2023/03/12 03:26:00;;;;;;;;;;;;;;;18.25;68.21;97762.09;2078299;28;19933;-53
2023/03/12 03:27:02;;;;;;;;;;;;;;;18.25;68.04;97760.22;2081687;28;20034;-56
2023/03/12 03:28:04;;;;;;;;;;;;;;;18.26;67.95;97766.41;2080335;28;20387;-55
2023/03/12 03:29:04;;;;;;;;;;;;;;;18.26;68.14;97764.53;2079123;28;19928;-54
2023/03/12 03:30:06;;;;;;;;;;;;;;;18.27;68.18;97770.72;2080688;28;20528;-55
2023/03/12 03:31:07;;;;;;;;;;;;;;;18.27;68.14;97776.06;2082330;28;20452;-51
2023/03/12 03:32:08;;;;;;;;;;;;;;;18.29;67.97;97774.00;2074983;28;19937;-50
2023/03/12 03:33:09;;;;;;;;;;;;;;;18.26;68.04;97777.13;2075950;28;20494;-55
2023/03/12 03:34:11;;;;;;;;;;;;;;;18.25;68.19;97775.50;2077703;28;19933;-52
2023/03/12 03:35:11;;;;;;;;;;;;;;;18.28;67.86;97783.09;2080238;28;20007;-53
2023/03/12 03:36:14;;;;;;;;;;;;;;;18.26;67.92;97779.81;2074339;28;19935;-52
2023/03/12 03:37:14;;;;;;;;;;;;;;;18.26;67.80;97777.13;2070350;28;19933;-54
2023/03/12 03:38:16;;;;;;;;;;;;;;;18.25;68.05;97784.38;2082689;28;20448;-52
2023/03/12 03:39:16;;;;;;;;;;;;;;;18.26;67.86;97785.19;2079985;28;19929;-54
2023/03/12 03:40:18;;;;;;;;;;;;;;;18.27;67.92;97792.19;2075112;28;20011;-50
2023/03/12 03:41:19;;;;;;;;;;;;;;;18.24;68.05;97787.25;2080248;28;20371;-56
2023/03/12 03:42:22;;;;;;;;;;;;;;;18.24;68.38;97788.06;2079511;28;19932;-53
2023/03/12 03:43:23;;;;;;;;;;;;;;;18.25;68.24;97788.91;2078224;28;19933;-53
2023/03/12 03:44:24;;;;;;;;;;;;;;;18.25;68.13;97788.91;2077971;28;19940;-56
2023/03/12 03:45:25;;;;;;;;;;;;;;;18.26;68.05;97786.00;2069886;28;19932;-57
2023/03/12 03:46:26;;;;;;;;;;;;;;;18.26;68.06;97790.56;2077115;28;19933;-57
2023/03/12 03:47:27;;;;;;;;;;;;;;;18.26;68.03;97794.06;2077902;28;19975;-54
2023/03/12 03:48:28;;;;;;;;;;;;;;;18.24;68.15;97790.75;2084097;28;20089;-56
2023/03/12 03:49:29;;;;;;;;;;;;;;;18.24;68.41;97798.00;2076496;28;22275;-59
2023/03/12 03:50:30;;;;;;;;;;;;;;;18.22;68.45;97798.22;2081537;28;20023;-54
2023/03/12 03:51:31;;;;;;;;;;;;;;;18.23;68.44;97796.38;2069634;28;20110;-56
2023/03/12 03:52:32;;;;;;;;;;;;;;;18.24;67.89;97792.63;2076345;28;19928;-55
2023/03/12 03:53:33;;;;;;;;;;;;;;;18.24;68.42;97798.81;2075166;28;19933;-55
2023/03/12 03:54:34;;;;;;;;;;;;;;;18.26;68.18;97794.06;2077743;28;19973;-50
2023/03/12 03:55:35;;;;;;;;;;;;;;;18.24;68.35;97798.81;2076911;28;20013;-59
2023/03/12 03:56:37;;;;;;;;;;;;;;;18.25;68.49;97802.34;2075757;28;19928;-54
2023/03/12 03:57:38;;;;;;;;;;;;;;;18.25;68.04;97802.34;2079995;28;19928;-56
2023/03/12 03:58:40;;;;;;;;;;;;;;;18.25;68.19;97799.66;2080479;28;19924;-59
2023/03/12 03:59:40;;;;;;;;;;;;;;;18.25;68.38;97805.03;2077238;28;19929;-53
2023/03/12 04:00:44;;;;;;;;;;;;;;;18.25;68.35;97805.03;2079942;28;19932;-55
2023/03/12 04:01:44;;;;;;;;;;;;;;;18.23;68.24;97809.78;2076134;28;20595;-54
2023/03/12 04:02:45;;;;;;;;;;;;;;;18.21;68.34;97804.63;2076091;28;19952;-49
2023/03/12 04:03:46;;;;;;;;;;;;;;;18.21;68.49;97799.25;2074687;28;22185;-56
2023/03/12 04:04:47;;;;;;;;;;;;;;;18.21;68.61;97799.25;2079251;28;19928;-52
2023/03/12 04:05:52;;;;;;;;;;;;;;;18.23;68.21;97801.72;2072698;28;19938;-52
2023/03/12 04:06:54;;;;;;;;;;;;;;;18.21;68.21;97804.63;2080782;28;20007;-54
2023/03/12 04:07:55;;;;;;;;;;;;;;;18.20;68.39;97803.00;2082330;28;19932;-55
2023/03/12 04:08:57;;;;;;;;;;;;;;;18.22;68.29;97808.13;2075471;28;19933;-51
2023/03/12 04:09:57;;;;;;;;;;;;;;;18.23;68.17;97817.84;2081321;28;19958;-55
2023/03/12 04:10:58;;;;;;;;;;;;;;;18.24;68.05;97814.09;2077767;28;20058;-52
2023/03/12 04:11:59;;;;;;;;;;;;;;;18.21;68.45;97814.53;2077811;28;20011;-53
2023/03/12 04:13:02;;;;;;;;;;;;;;;18.22;68.39;97818.88;2081390;28;19937;-52
2023/03/12 04:14:02;;;;;;;;;;;;;;;18.20;68.33;97816.41;2074709;28;20043;-56
2023/03/12 04:15:04;;;;;;;;;;;;;;;18.21;68.43;97820.72;2077671;28;19933;-56
2023/03/12 04:16:05;;;;;;;;;;;;;;;18.20;68.33;97819.09;2082028;28;19933;-48
2023/03/12 04:17:07;;;;;;;;;;;;;;;18.20;68.15;97818.28;2081686;28;20779;-59
2023/03/12 04:18:08;;;;;;;;;;;;;;;18.21;68.38;97825.28;2082043;28;19933;-53
2023/03/12 04:19:09;;;;;;;;;;;;;;;18.18;68.25;97826.53;2077476;28;19964;-51
2023/03/12 04:20:10;;;;;;;;;;;;;;;18.19;68.03;97822.00;2077634;28;20537;-55
2023/03/12 04:21:12;;;;;;;;;;;;;;;18.18;68.24;97825.72;2080607;28;19929;-55
2023/03/12 04:22:13;;;;;;;;;;;;;;;18.15;68.34;97836.91;2075933;28;20508;-56
2023/03/12 04:23:14;;;;;;;;;;;;;;;18.16;68.24;97835.84;2080962;28;19933;-49
2023/03/12 04:24:16;;;;;;;;;;;;;;;18.16;68.17;97839.34;2078142;28;19929;-56
2023/03/12 04:25:18;;;;;;;;;;;;;;;18.16;68.39;97842.03;2078658;28;19925;-53
2023/03/12 04:26:19;;;;;;;;;;;;;;;18.17;68.08;97842.88;2072653;28;19933;-58
2023/03/12 04:27:20;;;;;;;;;;;;;;;18.17;68.35;97840.19;2083271;28;20375;-55
2023/03/12 04:28:22;;;;;;;;;;;;;;;18.15;68.13;97851.13;2073300;28;19929;-51
2023/03/12 04:29:23;;;;;;;;;;;;;;;18.16;68.13;97849.28;2077785;28;19929;-54
2023/03/12 04:30:24;;;;;;;;;;;;;;;18.16;68.32;97860.00;2083055;28;20409;-56
2023/03/12 04:31:25;;;;;;;;;;;;;;;18.17;68.21;97858.97;2075752;28;19929;-58
2023/03/12 04:32:26;;;;;;;;;;;;;;;18.17;68.11;97846.38;2075047;28;19983;-52
2023/03/12 04:33:28;;;;;;;;;;;;;;;18.17;68.24;97848.25;2082018;28;20591;-54
2023/03/12 04:34:28;;;;;;;;;;;;;;;18.16;68.16;97854.63;2076744;28;20023;-55
2023/03/12 04:35:30;;;;;;;;;;;;;;;18.15;68.27;97855.69;2079617;28;20573;-54
2023/03/12 04:36:30;;;;;;;;;;;;;;;18.15;68.31;97861.88;2079588;28;20333;-54
2023/03/12 04:37:32;;;;;;;;;;;;;;;18.16;68.14;97866.19;2078280;28;19928;-55
2023/03/12 04:38:33;;;;;;;;;;;;;;;18.16;68.08;97860.00;2077654;28;19952;-54
2023/03/12 04:39:34;;;;;;;;;;;;;;;18.15;68.34;97869.94;2078198;28;19929;-54
2023/03/12 04:40:35;;;;;;;;;;;;;;;18.12;68.10;97865.00;2076053;28;20625;-51
2023/03/12 04:41:36;;;;;;;;;;;;;;;18.12;68.19;97858.81;2079067;28;19933;-56
2023/03/12 04:42:37;;;;;;;;;;;;;;;18.13;68.33;97860.44;2078939;28;20044;-58
2023/03/12 04:43:40;;;;;;;;;;;;;;;18.15;68.10;97861.06;2076773;28;20518;-56
2023/03/12 04:44:40;;;;;;;;;;;;;;;18.14;68.10;97870.16;2078666;28;19993;-52
2023/03/12 04:45:42;;;;;;;;;;;;;;;18.13;68.30;97871.19;2078043;28;20370;-51
2023/03/12 04:46:43;;;;;;;;;;;;;;;18.12;68.23;97869.56;2079957;28;19935;-58
2023/03/12 04:47:44;;;;;;;;;;;;;;;18.14;68.23;97864.78;2080280;28;20032;-52
2023/03/12 04:48:45;;;;;;;;;;;;;;;18.12;68.13;97870.38;2075393;28;20486;-60
2023/03/12 04:49:47;;;;;;;;;;;;;;;18.11;68.34;97868.75;2081286;28;19933;-49
2023/03/12 04:50:47;;;;;;;;;;;;;;;18.10;68.16;97872.44;2079836;28;20498;-55
2023/03/12 04:51:49;;;;;;;;;;;;;;;18.13;68.13;97871.19;2076123;28;19924;-54
2023/03/12 04:52:49;;;;;;;;;;;;;;;18.08;68.38;97882.59;2080828;28;19932;-52
2023/03/12 04:53:51;;;;;;;;;;;;;;;18.11;68.06;97889.34;2079489;28;20651;-54
2023/03/12 04:54:51;;;;;;;;;;;;;;;18.07;68.33;97884.44;2073136;28;19928;-54
2023/03/12 04:55:53;;;;;;;;;;;;;;;18.05;68.26;97886.53;2077068;28;19929;-54
2023/03/12 04:56:53;;;;;;;;;;;;;;;18.07;68.32;97889.78;2081210;28;20378;-53
2023/03/12 04:57:55;;;;;;;;;;;;;;;18.06;68.31;97885.47;2083492;28;19980;-55
2023/03/12 04:58:56;;;;;;;;;;;;;;;18.07;68.06;97889.78;2075379;28;20325;-60
2023/03/12 04:59:58;;;;;;;;;;;;;;;18.05;68.17;97894.59;2075189;28;20041;-54
2023/03/12 05:00:58;;;;;;;;;;;;;;;18.07;68.28;97891.66;2064202;28;19940;-59
2023/03/12 05:02:00;;;;;;;;;;;;;;;18.05;68.13;97897.25;2080673;28;19937;-57
2023/03/12 05:03:00;;;;;;;;;;;;;;;18.05;68.17;97897.25;2078202;28;19995;-58
2023/03/12 05:04:02;;;;;;;;;;;;;;;18.04;68.23;97895.59;2078360;28;20075;-51
2023/03/12 05:05:02;;;;;;;;;;;;;;;18.04;68.11;97895.59;2078814;28;20003;-54
2023/03/12 05:06:04;;;;;;;;;;;;;;;18.06;68.11;97901.59;2074494;28;21252;-58
2023/03/12 05:07:04;;;;;;;;;;;;;;;18.04;68.30;97898.28;2077419;28;22760;-52
2023/03/12 05:08:06;;;;;;;;;;;;;;;18.04;68.20;97894.78;2081004;28;19933;-58
2023/03/12 05:09:07;;;;;;;;;;;;;;;18.05;68.13;97893.72;2073349;28;20020;-55
2023/03/12 05:10:09;;;;;;;;;;;;;;;18.06;68.14;97898.91;2076432;28;19932;-58
2023/03/12 05:11:09;;;;;;;;;;;;;;;18.04;68.20;97894.78;2083033;28;19987;-61
2023/03/12 05:12:11;;;;;;;;;;;;;;;18.04;68.14;97905.53;2077108;28;19932;-59
2023/03/12 05:13:15;;;;;;;;;;;;;;;18.03;68.23;97906.56;2081023;28;19968;-59
2023/03/12 05:14:18;;;;;;;;;;;;;;;18.01;68.28;97909.47;2072128;28;19929;-59
2023/03/12 05:15:18;;;;;;;;;;;;;;;18.04;68.22;97909.03;2076639;28;20433;-54
2023/03/12 05:16:20;;;;;;;;;;;;;;;18.04;67.96;97914.38;2082909;28;19975;-60
2023/03/12 05:17:20;;;;;;;;;;;;;;;18.02;68.00;97904.91;2073573;28;19933;-53
2023/03/12 05:18:22;;;;;;;;;;;;;;;18.04;68.17;97903.66;2075156;28;19929;-57
2023/03/12 05:19:22;;;;;;;;;;;;;;;18.04;68.03;97910.88;2075951;28;20414;-56
2023/03/12 05:20:24;;;;;;;;;;;;;;;18.04;68.21;97906.34;2073532;28;19932;-51
2023/03/12 05:21:24;;;;;;;;;;;;;;;18.03;68.06;97910.06;2073067;28;19933;-61